createdAt,value
2022-11-19T00:00:17.857Z,63.70
2022-11-19T00:02:46.828Z,62.90
2022-11-19T00:05:15.183Z,62.90
2022-11-19T00:07:45.250Z,62.80
2022-11-19T00:10:13.731Z,63.00
2022-11-19T00:12:56.546Z,63.30
2022-11-19T00:15:25.713Z,63.30
2022-11-19T00:17:54.120Z,63.10
2022-11-19T00:20:23.426Z,62.70
2022-11-19T00:22:54.253Z,62.60
2022-11-19T00:25:23.385Z,62.70
2022-11-19T00:27:52.513Z,62.70
2022-11-19T00:30:46.305Z,62.50
2022-11-19T00:33:10.088Z,62.60
2022-11-19T00:35:38.482Z,62.50
2022-11-19T00:38:08.287Z,62.60
2022-11-19T00:40:36.685Z,62.40
2022-11-19T00:43:22.865Z,62.40
2022-11-19T00:45:51.348Z,62.50
2022-11-19T00:48:19.747Z,62.40
2022-11-19T00:50:48.142Z,62.30
2022-11-19T00:53:18.043Z,62.40
2022-11-19T00:55:46.689Z,62.30
2022-11-19T00:58:15.093Z,62.30
2022-11-19T01:00:43.419Z,62.30
2022-11-19T01:03:12.249Z,62.30
2022-11-19T01:05:40.943Z,62.30
2022-11-19T01:08:09.405Z,62.30
2022-11-19T01:10:39.347Z,62.30
2022-11-19T01:13:26.254Z,62.20
2022-11-19T01:15:54.656Z,62.20
2022-11-19T01:18:23.161Z,62.20
2022-11-19T01:20:51.819Z,62.30
2022-11-19T01:23:20.434Z,62.20
2022-11-19T01:25:50.335Z,62.10
2022-11-19T01:28:18.887Z,62.10
2022-11-19T01:30:47.493Z,62.00
2022-11-19T01:33:15.979Z,62.00
2022-11-19T01:35:44.614Z,62.10
2022-11-19T01:38:13.263Z,62.10
2022-11-19T01:40:46.801Z,61.90
2022-11-19T01:43:16.635Z,61.50
2022-11-19T01:45:48.309Z,61.40
2022-11-19T01:48:22.127Z,61.50
2022-11-19T01:50:56.446Z,62.40
2022-11-19T01:53:29.512Z,61.50
2022-11-19T01:56:03.900Z,61.60
2022-11-19T01:58:38.922Z,61.70
2022-11-19T02:01:08.992Z,61.70
2022-11-19T02:03:39.536Z,61.60
2022-11-19T02:06:09.253Z,61.50
2022-11-19T02:08:42.244Z,61.40
2022-11-19T02:11:41.664Z,61.20
2022-11-19T02:14:26.599Z,61.10
2022-11-19T02:17:04.174Z,61.00
2022-11-19T02:20:17.223Z,60.90
2022-11-19T02:23:40.635Z,60.80
2022-11-19T02:27:03.539Z,60.80
2022-11-19T02:30:08.820Z,61.00
2022-11-19T02:32:44.965Z,60.90
2022-11-19T02:35:23.348Z,61.20
2022-11-19T02:37:57.660Z,61.10
2022-11-19T02:40:30.032Z,61.10
2022-11-19T02:43:12.288Z,61.10
2022-11-19T02:45:48.312Z,61.10
2022-11-19T02:48:21.779Z,60.90
2022-11-19T02:50:54.491Z,60.80
2022-11-19T02:53:23.798Z,60.80
2022-11-19T02:56:06.099Z,60.90
2022-11-19T02:58:54.664Z,61.00
2022-11-19T03:01:43.298Z,61.30
2022-11-19T03:04:32.561Z,61.40
2022-11-19T03:07:05.961Z,61.20
2022-11-19T03:09:40.047Z,61.00
2022-11-19T03:12:19.251Z,61.10
2022-11-19T03:15:13.802Z,61.10
2022-11-19T03:18:02.846Z,61.10
2022-11-19T03:20:35.709Z,61.10
2022-11-19T03:23:11.899Z,61.20
2022-11-19T03:25:45.785Z,61.20
2022-11-19T03:28:20.429Z,61.00
2022-11-19T03:30:50.873Z,61.20
2022-11-19T03:33:25.156Z,61.20
2022-11-19T03:35:58.786Z,61.00
2022-11-19T03:38:32.853Z,61.00
2022-11-19T03:41:03.747Z,61.00
2022-11-19T03:43:37.034Z,61.10
2022-11-19T03:46:10.256Z,60.80
2022-11-19T03:48:42.880Z,60.70
2022-11-19T03:51:16.497Z,60.70
2022-11-19T03:53:45.772Z,60.70
2022-11-19T03:56:18.818Z,60.70
2022-11-19T03:58:48.766Z,60.60
2022-11-19T04:01:17.548Z,60.50
2022-11-19T04:04:07.590Z,60.60
2022-11-19T04:06:36.012Z,60.40
2022-11-19T04:09:04.447Z,60.30
2022-11-19T04:11:32.980Z,60.40
2022-11-19T04:14:01.359Z,60.30
2022-11-19T04:16:29.703Z,60.10
2022-11-19T04:18:59.516Z,60.20
2022-11-19T04:21:28.225Z,60.20
2022-11-19T04:23:56.592Z,60.40
2022-11-19T04:26:24.944Z,60.50
2022-11-19T04:28:53.352Z,60.50
2022-11-19T04:31:21.695Z,60.70
2022-11-19T04:33:50.351Z,60.70
2022-11-19T04:36:20.333Z,61.50
2022-11-19T04:38:48.776Z,60.50
2022-11-19T04:41:17.145Z,60.40
2022-11-19T04:43:45.798Z,60.40
2022-11-19T04:46:14.198Z,60.40
2022-11-19T04:48:42.812Z,60.40
2022-11-19T04:51:11.376Z,60.40
2022-11-19T04:53:41.178Z,60.30
2022-11-19T04:56:09.508Z,60.10
2022-11-19T04:58:38.175Z,60.00
2022-11-19T05:01:07.692Z,59.80
2022-11-19T05:03:37.205Z,59.80
2022-11-19T05:06:05.971Z,59.80
2022-11-19T05:08:34.734Z,59.90
2022-11-19T05:11:04.538Z,59.60
2022-11-19T05:13:33.349Z,60.30
2022-11-19T05:16:02.206Z,59.90
2022-11-19T05:18:30.698Z,59.80
2022-11-19T05:20:59.291Z,59.90
2022-11-19T05:23:28.219Z,59.60
2022-11-19T05:25:56.821Z,59.70
2022-11-19T05:28:37.935Z,59.70
2022-11-19T05:31:07.517Z,59.80
2022-11-19T05:33:36.084Z,59.90
2022-11-19T05:36:05.089Z,59.90
2022-11-19T05:38:33.572Z,59.90
2022-11-19T05:41:01.939Z,59.80
2022-11-19T05:43:31.884Z,59.90
2022-11-19T05:46:01.683Z,59.90
2022-11-19T05:48:30.440Z,59.90
2022-11-19T05:50:59.201Z,59.90
2022-11-19T05:53:28.433Z,60.00
2022-11-19T05:55:56.836Z,60.00
2022-11-19T05:58:25.242Z,60.00
2022-11-19T06:00:57.434Z,60.00
2022-11-19T06:03:26.341Z,60.00
2022-11-19T06:05:54.764Z,59.90
2022-11-19T06:08:23.150Z,60.00
2022-11-19T06:10:51.655Z,59.90
2022-11-19T06:13:20.111Z,60.00
2022-11-19T06:15:48.779Z,59.90
2022-11-19T06:18:18.861Z,59.90
2022-11-19T06:20:47.350Z,59.70
2022-11-19T06:23:16.106Z,60.40
2022-11-19T06:25:44.551Z,59.40
2022-11-19T06:28:13.101Z,59.40
2022-11-19T06:30:41.566Z,59.40
2022-11-19T06:33:09.905Z,59.50
2022-11-19T06:35:39.614Z,59.60
2022-11-19T06:38:08.265Z,59.60
2022-11-19T06:40:36.695Z,59.50
2022-11-19T06:43:05.288Z,59.50
2022-11-19T06:45:33.838Z,59.50
2022-11-19T06:48:02.731Z,59.50
2022-11-19T06:50:31.542Z,59.40
2022-11-19T06:53:01.253Z,59.40
2022-11-19T06:55:29.648Z,59.40
2022-11-19T06:57:57.997Z,59.50
2022-11-19T07:00:26.520Z,59.60
2022-11-19T07:02:55.401Z,59.50
2022-11-19T07:05:23.921Z,59.50
2022-11-19T07:07:52.541Z,59.50
2022-11-19T07:10:22.484Z,59.50
2022-11-19T07:12:50.928Z,59.50
2022-11-19T07:15:19.576Z,59.30
2022-11-19T07:17:48.744Z,59.30
2022-11-19T07:20:18.088Z,59.30
2022-11-19T07:22:46.686Z,59.30
2022-11-19T07:25:15.104Z,59.30
2022-11-19T07:27:47.300Z,59.30
2022-11-19T07:30:17.245Z,59.30
2022-11-19T07:32:45.926Z,59.30
2022-11-19T07:35:14.709Z,59.30
2022-11-19T07:37:43.101Z,59.10
2022-11-19T07:40:14.955Z,59.10
2022-11-19T07:42:49.644Z,59.10
2022-11-19T07:45:20.809Z,59.00
2022-11-19T07:47:49.654Z,58.90
2022-11-19T07:50:18.567Z,58.90
2022-11-19T07:52:46.951Z,58.90
2022-11-19T07:55:15.931Z,58.80
2022-11-19T07:57:45.829Z,58.70
2022-11-19T08:00:16.071Z,58.70
2022-11-19T08:02:44.504Z,58.70
2022-11-19T08:05:12.963Z,58.60
2022-11-19T08:07:42.010Z,58.70
2022-11-19T08:10:12.016Z,58.70
2022-11-19T08:12:40.571Z,58.70
2022-11-19T08:15:12.353Z,58.60
2022-11-19T08:17:58.281Z,58.80
2022-11-19T08:20:26.864Z,58.80
2022-11-19T08:22:55.288Z,58.60
2022-11-19T08:25:23.698Z,58.60
2022-11-19T08:27:52.140Z,58.70
2022-11-19T08:30:22.210Z,58.60
2022-11-19T08:32:51.803Z,58.60
2022-11-19T08:35:20.137Z,58.60
2022-11-19T08:37:49.159Z,58.60
2022-11-19T08:40:18.937Z,58.40
2022-11-19T08:43:01.673Z,58.20
2022-11-19T08:45:34.939Z,58.10
2022-11-19T08:48:06.150Z,58.20
2022-11-19T08:50:35.221Z,58.20
2022-11-19T08:53:06.493Z,58.20
2022-11-19T08:55:34.906Z,58.20
2022-11-19T08:58:05.512Z,58.20
2022-11-19T09:00:38.221Z,58.10
2022-11-19T09:03:06.660Z,58.10
2022-11-19T09:05:35.129Z,58.20
2022-11-19T09:08:04.008Z,58.20
2022-11-19T09:10:32.437Z,58.10
2022-11-19T09:13:03.434Z,58.00
2022-11-19T09:15:32.450Z,58.00
2022-11-19T09:18:02.278Z,58.20
2022-11-19T09:20:30.768Z,58.10
2022-11-19T09:22:59.271Z,58.80
2022-11-19T09:25:29.276Z,58.10
2022-11-19T09:27:58.125Z,58.10
2022-11-19T09:30:26.922Z,58.00
2022-11-19T09:32:55.379Z,58.00
2022-11-19T09:35:25.418Z,58.10
2022-11-19T09:37:53.863Z,58.10
2022-11-19T09:40:23.775Z,58.20
2022-11-19T09:43:06.744Z,58.20
2022-11-19T09:45:51.364Z,58.10
2022-11-19T09:48:30.608Z,58.00
2022-11-19T09:51:08.101Z,57.80
2022-11-19T09:53:44.756Z,57.70
2022-11-19T09:56:19.696Z,57.40
2022-11-19T09:58:48.376Z,57.30
2022-11-19T10:01:19.366Z,57.50
2022-11-19T10:03:50.377Z,57.50
2022-11-19T10:06:30.801Z,57.60
2022-11-19T10:09:28.692Z,57.50
2022-11-19T10:12:09.231Z,57.30
2022-11-19T10:15:03.552Z,57.50
2022-11-19T10:17:47.800Z,57.30
2022-11-19T10:20:35.658Z,57.40
2022-11-19T10:23:14.412Z,57.40
2022-11-19T10:25:46.743Z,57.20
2022-11-19T10:28:18.555Z,57.40
2022-11-19T10:30:51.093Z,57.30
2022-11-19T10:33:28.433Z,57.00
2022-11-19T10:35:59.757Z,56.90
2022-11-19T10:38:35.457Z,57.00
2022-11-19T10:41:13.668Z,56.90
2022-11-19T10:43:48.150Z,57.00
2022-11-19T10:46:21.693Z,57.00
2022-11-19T10:48:54.367Z,56.90
2022-11-19T10:51:25.852Z,56.80
2022-11-19T10:53:57.249Z,56.70
2022-11-19T10:56:36.284Z,56.80
2022-11-19T10:59:12.942Z,57.00
2022-11-19T11:01:44.552Z,57.00
2022-11-19T11:04:19.724Z,57.00
2022-11-19T11:06:54.301Z,57.00
2022-11-19T11:09:36.939Z,56.60
2022-11-19T11:12:31.164Z,56.50
2022-11-19T11:15:09.775Z,56.50
2022-11-19T11:17:38.993Z,56.70
2022-11-19T11:20:22.044Z,56.80
2022-11-19T11:22:52.262Z,56.90
2022-11-19T11:25:26.179Z,57.00
2022-11-19T11:28:07.246Z,56.90
2022-11-19T11:30:36.696Z,56.70
2022-11-19T11:33:34.375Z,56.80
2022-11-19T11:36:08.221Z,56.50
2022-11-19T11:38:44.056Z,56.80
2022-11-19T11:44:09.093Z,57.00
2022-11-19T11:46:42.647Z,57.00
2022-11-19T11:49:27.681Z,56.90
2022-11-19T11:52:15.503Z,56.70
2022-11-19T11:55:02.333Z,57.50
2022-11-19T11:57:34.290Z,56.80
2022-11-19T12:00:08.645Z,56.80
2022-11-19T12:02:37.588Z,56.60
2022-11-19T12:05:15.297Z,56.70
2022-11-19T12:08:05.625Z,56.70
2022-11-19T12:10:47.182Z,56.50
2022-11-19T12:13:47.864Z,56.60
2022-11-19T12:16:23.918Z,56.50
2022-11-19T12:19:10.396Z,56.70
2022-11-19T12:21:49.206Z,56.50
2022-11-19T12:24:38.593Z,56.50
2022-11-19T12:27:21.400Z,56.40
2022-11-19T12:30:05.339Z,56.30
2022-11-19T12:33:13.064Z,56.40
2022-11-19T12:35:57.649Z,56.20
2022-11-19T12:38:42.473Z,56.40
2022-11-19T12:41:34.208Z,56.10
2022-11-19T12:44:07.655Z,56.30
2022-11-19T12:46:51.681Z,56.50
2022-11-19T12:49:52.649Z,56.30
2022-11-19T12:52:51.532Z,56.00
2022-11-19T12:55:33.191Z,55.90
2022-11-19T12:58:14.067Z,55.90
2022-11-19T13:00:53.043Z,55.90
2022-11-19T13:03:38.974Z,56.00
2022-11-19T13:06:18.168Z,55.90
2022-11-19T13:08:52.954Z,55.90
2022-11-19T13:11:26.406Z,56.00
2022-11-19T13:14:00.549Z,56.10
2022-11-19T13:16:31.910Z,56.00
2022-11-19T13:19:19.968Z,56.00
2022-11-19T13:21:55.136Z,55.80
2022-11-19T13:24:34.130Z,55.90
2022-11-19T13:27:06.703Z,55.80
2022-11-19T13:29:42.697Z,55.80
2022-11-19T13:32:20.287Z,55.80
2022-11-19T13:35:03.941Z,55.80
2022-11-19T13:37:46.526Z,55.80
2022-11-19T13:40:30.658Z,55.80
2022-11-19T13:43:31.538Z,55.80
2022-11-19T13:46:17.311Z,55.80
2022-11-19T13:48:52.796Z,56.20
2022-11-19T13:51:29.008Z,55.80
2022-11-19T13:54:02.985Z,55.70
2022-11-19T13:56:44.382Z,55.80
2022-11-19T13:59:35.034Z,56.00
2022-11-19T14:02:46.893Z,55.20
2022-11-19T14:05:51.435Z,55.30
2022-11-19T14:08:49.530Z,55.30
2022-11-19T14:11:47.322Z,55.30
2022-11-19T14:14:50.434Z,55.50
2022-11-19T14:17:48.578Z,55.60
2022-11-19T14:20:55.548Z,55.40
2022-11-19T14:24:04.962Z,55.20
2022-11-19T14:27:19.385Z,55.00
2022-11-19T14:29:59.177Z,55.00
2022-11-19T14:32:47.334Z,55.00
2022-11-19T14:35:32.090Z,54.90
2022-11-19T14:38:37.010Z,54.90
2022-11-19T14:41:39.589Z,55.00
2022-11-19T14:44:14.072Z,54.90
2022-11-19T14:46:46.023Z,55.10
2022-11-19T14:49:31.071Z,55.10
2022-11-19T14:52:00.263Z,54.90
2022-11-19T14:54:40.946Z,55.00
2022-11-19T14:57:25.196Z,54.80
2022-11-19T14:59:58.461Z,54.80
2022-11-19T15:02:36.779Z,54.90
2022-11-19T15:05:17.945Z,54.70
2022-11-19T15:07:55.557Z,54.80
2022-11-19T15:10:48.213Z,54.80
2022-11-19T15:13:29.514Z,54.60
2022-11-19T15:16:07.241Z,54.50
2022-11-19T15:19:23.675Z,54.70
2022-11-19T15:22:30.072Z,54.50
2022-11-19T15:25:31.545Z,54.40
2022-11-19T15:28:16.521Z,54.50
2022-11-19T15:31:01.626Z,54.70
2022-11-19T15:33:57.857Z,54.80
2022-11-19T15:36:33.875Z,54.60
2022-11-19T15:39:10.657Z,54.80
2022-11-19T15:42:00.168Z,54.60
2022-11-19T15:44:36.371Z,54.60
2022-11-19T15:47:12.391Z,54.70
2022-11-19T15:49:42.256Z,54.70
2022-11-19T15:52:21.014Z,54.70
2022-11-19T15:54:49.543Z,54.60
2022-11-19T15:57:28.237Z,54.80
2022-11-19T16:00:00.969Z,54.60
2022-11-19T16:02:37.912Z,54.80
2022-11-19T16:05:07.809Z,54.80
2022-11-19T16:07:36.426Z,54.80
2022-11-19T16:10:06.173Z,54.70
2022-11-19T16:12:52.373Z,54.70
2022-11-19T16:15:42.529Z,54.80
2022-11-19T16:18:18.061Z,54.80
2022-11-19T16:20:50.345Z,54.70
2022-11-19T16:23:21.885Z,54.60
2022-11-19T16:25:50.713Z,54.60
2022-11-19T16:28:23.379Z,54.60
2022-11-19T16:30:54.271Z,54.60
2022-11-19T16:33:26.581Z,54.60
2022-11-19T16:36:12.857Z,54.60
2022-11-19T16:38:44.207Z,54.40
2022-11-19T16:41:31.383Z,54.60
2022-11-19T16:44:00.721Z,54.50
2022-11-19T16:46:30.865Z,54.50
2022-11-19T16:49:01.344Z,54.50
2022-11-19T16:51:41.587Z,54.50
2022-11-19T16:54:12.075Z,54.40
2022-11-19T16:56:44.466Z,54.50
2022-11-19T16:59:21.705Z,54.50
2022-11-19T17:01:56.142Z,54.30
2022-11-19T17:04:29.627Z,54.50
2022-11-19T17:06:58.906Z,54.40
2022-11-19T17:09:37.371Z,54.50
2022-11-19T17:12:25.151Z,54.40
2022-11-19T17:14:59.752Z,54.20
2022-11-19T17:17:40.833Z,54.40
2022-11-19T17:20:53.564Z,54.30
2022-11-19T17:23:23.818Z,54.30
2022-11-19T17:25:58.022Z,54.50
2022-11-19T17:28:38.217Z,54.40
2022-11-19T17:31:15.873Z,54.30
2022-11-19T17:33:56.148Z,54.40
2022-11-19T17:36:27.620Z,54.30
2022-11-19T17:38:56.376Z,54.50
2022-11-19T17:41:45.622Z,54.50
2022-11-19T17:44:34.565Z,54.40
2022-11-19T17:47:21.313Z,54.40
2022-11-19T17:49:51.917Z,54.40
2022-11-19T17:52:28.110Z,54.60
2022-11-19T17:55:05.234Z,54.50
2022-11-19T17:57:39.735Z,54.60
2022-11-19T18:00:12.790Z,54.60
2022-11-19T18:02:41.130Z,54.60
2022-11-19T18:05:16.840Z,54.50
2022-11-19T18:07:49.911Z,54.40
2022-11-19T18:10:18.827Z,54.40
2022-11-19T18:12:47.626Z,54.60
2022-11-19T18:15:19.543Z,54.60
2022-11-19T18:17:48.239Z,54.60
2022-11-19T18:20:17.108Z,55.20
2022-11-19T18:22:47.833Z,54.60
2022-11-19T18:25:20.178Z,54.60
2022-11-19T18:27:48.927Z,54.50
2022-11-19T18:30:18.413Z,54.60
2022-11-19T18:32:46.906Z,54.60
2022-11-19T18:35:19.160Z,54.60
2022-11-19T18:37:48.000Z,54.60
2022-11-19T18:40:17.971Z,54.40
2022-11-19T18:43:15.416Z,54.30
2022-11-19T18:45:43.826Z,54.40
2022-11-19T18:48:13.092Z,54.30
2022-11-19T18:50:41.672Z,54.40
2022-11-19T18:53:11.967Z,54.50
2022-11-19T18:55:44.258Z,54.50
2022-11-19T18:58:14.230Z,54.60
2022-11-19T19:00:43.507Z,54.60
2022-11-19T19:03:13.820Z,54.60
2022-11-19T19:05:44.572Z,54.60
2022-11-19T19:08:14.165Z,54.60
2022-11-19T19:10:44.638Z,54.50
2022-11-19T19:13:13.325Z,54.50
2022-11-19T19:15:42.131Z,54.50
2022-11-19T19:18:12.071Z,54.50
2022-11-19T19:20:40.995Z,54.50
2022-11-19T19:23:10.911Z,54.50
2022-11-19T19:25:39.849Z,54.50
2022-11-19T19:28:10.429Z,54.50
2022-11-19T19:30:39.430Z,54.50
2022-11-19T19:33:08.245Z,54.50
2022-11-19T19:35:39.518Z,54.70
2022-11-19T19:38:11.200Z,54.60
2022-11-19T19:40:39.723Z,54.60
2022-11-19T19:43:09.602Z,54.50
2022-11-19T19:45:41.992Z,54.50
2022-11-19T19:48:10.459Z,54.60
2022-11-19T19:50:39.190Z,54.50
2022-11-19T19:53:07.713Z,54.50
2022-11-19T19:55:36.356Z,54.60
2022-11-19T19:58:07.293Z,54.60
2022-11-19T20:00:37.553Z,54.80
2022-11-19T20:03:06.105Z,54.60
2022-11-19T20:05:34.439Z,54.70
2022-11-19T20:08:03.345Z,54.60
2022-11-19T20:10:32.345Z,54.70
2022-11-19T20:13:18.471Z,54.80
2022-11-19T20:15:48.564Z,54.90
2022-11-19T20:18:16.994Z,54.80
2022-11-19T20:20:45.935Z,54.70
2022-11-19T20:23:14.454Z,54.90
2022-11-19T20:25:42.862Z,54.90
2022-11-19T20:28:11.767Z,54.90
2022-11-19T20:30:40.508Z,54.90
2022-11-19T20:33:10.652Z,54.90
2022-11-19T20:35:40.562Z,54.80
2022-11-19T20:38:08.994Z,54.90
2022-11-19T20:40:38.577Z,54.80
2022-11-19T20:43:24.727Z,54.70
2022-11-19T20:45:53.311Z,54.70
2022-11-19T20:48:23.421Z,54.70
2022-11-19T20:50:51.872Z,54.80
2022-11-19T20:53:20.251Z,54.70
2022-11-19T20:56:04.490Z,54.80
2022-11-19T20:58:34.394Z,54.80
2022-11-19T21:01:04.414Z,54.80
2022-11-19T21:03:35.685Z,54.80
2022-11-19T21:06:07.674Z,54.70
2022-11-19T21:08:37.437Z,54.70
2022-11-19T21:11:09.504Z,54.70
2022-11-19T21:13:38.899Z,54.80
2022-11-19T21:16:10.164Z,54.80
2022-11-19T21:18:40.423Z,54.80
2022-11-19T21:21:09.040Z,54.80
2022-11-19T21:23:39.242Z,54.90
2022-11-19T21:26:12.779Z,55.00
2022-11-19T21:28:41.188Z,55.00
2022-11-19T21:31:10.265Z,55.00
2022-11-19T21:33:40.384Z,55.00
2022-11-19T21:36:09.752Z,55.00
2022-11-19T21:38:38.473Z,55.00
2022-11-19T21:41:07.884Z,55.00
2022-11-19T21:43:36.415Z,55.00
2022-11-19T21:46:08.905Z,55.10
2022-11-19T21:48:39.999Z,55.00
2022-11-19T21:51:09.533Z,55.00
2022-11-19T21:53:38.149Z,55.10
2022-11-19T21:56:07.715Z,55.00
2022-11-19T21:58:36.146Z,55.00
2022-11-19T22:01:06.817Z,55.00
2022-11-19T22:03:36.541Z,55.00
2022-11-19T22:06:08.926Z,55.00
2022-11-19T22:08:39.539Z,55.10
2022-11-19T22:11:22.800Z,55.10
2022-11-19T22:13:51.445Z,55.20
2022-11-19T22:16:20.247Z,55.20
2022-11-19T22:18:49.279Z,55.10
2022-11-19T22:21:19.201Z,55.10
2022-11-19T22:23:48.050Z,55.10
2022-11-19T22:26:16.595Z,55.10
2022-11-19T22:28:45.256Z,55.10
2022-11-19T22:31:15.453Z,55.10
2022-11-19T22:33:43.958Z,55.10
2022-11-19T22:36:13.043Z,55.10
2022-11-19T22:38:42.788Z,55.10
2022-11-19T22:41:13.765Z,55.10
2022-11-19T22:43:43.799Z,55.10
2022-11-19T22:46:13.919Z,55.20
2022-11-19T22:48:43.194Z,55.10
2022-11-19T22:51:15.432Z,55.20
2022-11-19T22:53:45.880Z,55.20
2022-11-19T22:56:17.608Z,55.20
2022-11-19T22:58:46.774Z,55.20
2022-11-19T23:01:19.138Z,55.20
2022-11-19T23:03:48.265Z,55.20
2022-11-19T23:06:17.568Z,55.00
2022-11-19T23:08:47.842Z,55.00
2022-11-19T23:11:41.270Z,54.90
2022-11-19T23:14:11.264Z,54.90
2022-11-19T23:16:40.402Z,55.00
2022-11-19T23:19:09.498Z,55.00
2022-11-19T23:21:40.049Z,55.10
2022-11-19T23:24:11.847Z,55.20
2022-11-19T23:26:40.612Z,55.20
2022-11-19T23:29:09.324Z,55.20
2022-11-19T23:31:41.433Z,55.30
2022-11-19T23:34:10.014Z,55.40
2022-11-19T23:36:41.224Z,55.30
2022-11-19T23:39:17.032Z,55.40
2022-11-19T23:41:46.541Z,55.30
2022-11-19T23:44:14.926Z,55.40
2022-11-19T23:46:43.499Z,55.40
2022-11-19T23:49:12.605Z,55.40
2022-11-19T23:51:41.201Z,55.40
2022-11-19T23:54:13.938Z,55.40
2022-11-19T23:56:42.525Z,55.50
2022-11-19T23:59:11.318Z,55.50
